sensor_id;sensor_type;location;lat;lon;timestamp;temperature;humidity
16479;DHT22;8350;52.316;10.530;2023-10-09T00:01:43;12.50;99.90
16479;DHT22;8350;52.316;10.530;2023-10-09T00:04:13;12.50;99.90
16479;DHT22;8350;52.316;10.530;2023-10-09T00:06:41;12.60;99.90
16479;DHT22;8350;52.316;10.530;2023-10-09T00:09:09;12.60;99.90
16479;DHT22;8350;52.316;10.530;2023-10-09T00:11:53;12.60;99.90
16479;DHT22;8350;52.316;10.530;2023-10-09T00:14:23;12.70;99.90
16479;DHT22;8350;52.316;10.530;2023-10-09T00:16:50;12.60;99.90
16479;DHT22;8350;52.316;10.530;2023-10-09T00:19:23;12.50;99.90
16479;DHT22;8350;52.316;10.530;2023-10-09T00:21:56;12.50;99.90
16479;DHT22;8350;52.316;10.530;2023-10-09T00:24:24;12.60;99.90
16479;DHT22;8350;52.316;10.530;2023-10-09T00:26:51;12.60;99.90
16479;DHT22;8350;52.316;10.530;2023-10-09T00:29:21;12.60;99.90
16479;DHT22;8350;52.316;10.530;2023-10-09T00:31:51;12.60;99.90
16479;DHT22;8350;52.316;10.530;2023-10-09T00:34:23;12.60;99.90
16479;DHT22;8350;52.316;10.530;2023-10-09T00:36:55;12.60;99.90
16479;DHT22;8350;52.316;10.530;2023-10-09T00:39:30;12.60;99.90
16479;DHT22;8350;52.316;10.530;2023-10-09T00:42:11;12.60;99.90
16479;DHT22;8350;52.316;10.530;2023-10-09T00:44:51;12.50;99.90
16479;DHT22;8350;52.316;10.530;2023-10-09T00:47:19;12.50;99.90
16479;DHT22;8350;52.316;10.530;2023-10-09T00:49:55;12.50;99.90
16479;DHT22;8350;52.316;10.530;2023-10-09T00:52:28;12.50;99.90
16479;DHT22;8350;52.316;10.530;2023-10-09T00:54:59;12.50;99.90
16479;DHT22;8350;52.316;10.530;2023-10-09T00:57:31;12.50;99.90
16479;DHT22;8350;52.316;10.530;2023-10-09T01:00:04;12.50;99.90
16479;DHT22;8350;52.316;10.530;2023-10-09T01:02:39;12.50;99.90
16479;DHT22;8350;52.316;10.530;2023-10-09T01:05:10;12.50;99.90
16479;DHT22;8350;52.316;10.530;2023-10-09T01:07:46;12.50;99.90
16479;DHT22;8350;52.316;10.530;2023-10-09T01:10:14;12.50;99.90
16479;DHT22;8350;52.316;10.530;2023-10-09T01:12:43;12.40;99.90
16479;DHT22;8350;52.316;10.530;2023-10-09T01:15:12;12.40;99.90
16479;DHT22;8350;52.316;10.530;2023-10-09T01:18:02;12.40;99.90
16479;DHT22;8350;52.316;10.530;2023-10-09T01:20:34;12.40;99.90
16479;DHT22;8350;52.316;10.530;2023-10-09T01:23:10;12.40;99.90
16479;DHT22;8350;52.316;10.530;2023-10-09T01:25:37;12.40;99.90
16479;DHT22;8350;52.316;10.530;2023-10-09T01:28:15;12.50;99.90
16479;DHT22;8350;52.316;10.530;2023-10-09T01:30:45;12.40;99.90
16479;DHT22;8350;52.316;10.530;2023-10-09T01:33:13;12.40;99.90
16479;DHT22;8350;52.316;10.530;2023-10-09T01:35:44;12.40;99.90
16479;DHT22;8350;52.316;10.530;2023-10-09T01:38:16;12.40;99.90
16479;DHT22;8350;52.316;10.530;2023-10-09T01:40:44;12.50;99.90
16479;DHT22;8350;52.316;10.530;2023-10-09T01:43:17;12.50;99.90
16479;DHT22;8350;52.316;10.530;2023-10-09T01:45:44;12.60;99.90
16479;DHT22;8350;52.316;10.530;2023-10-09T01:48:12;12.50;99.90
16479;DHT22;8350;52.316;10.530;2023-10-09T01:50:44;12.60;99.90
16479;DHT22;8350;52.316;10.530;2023-10-09T01:53:15;12.50;99.90
16479;DHT22;8350;52.316;10.530;2023-10-09T01:55:47;12.60;99.90
16479;DHT22;8350;52.316;10.530;2023-10-09T01:58:18;12.50;99.90
16479;DHT22;8350;52.316;10.530;2023-10-09T02:00:50;12.60;99.90
16479;DHT22;8350;52.316;10.530;2023-10-09T02:03:20;12.50;99.90
16479;DHT22;8350;52.316;10.530;2023-10-09T02:05:55;12.50;99.90
16479;DHT22;8350;52.316;10.530;2023-10-09T02:08:46;12.50;99.90
16479;DHT22;8350;52.316;10.530;2023-10-09T02:11:15;12.60;99.90
16479;DHT22;8350;52.316;10.530;2023-10-09T02:13:50;12.60;99.90
16479;DHT22;8350;52.316;10.530;2023-10-09T02:16:27;12.60;99.90
16479;DHT22;8350;52.316;10.530;2023-10-09T02:18:55;12.60;99.90
16479;DHT22;8350;52.316;10.530;2023-10-09T02:21:25;12.60;99.90
16479;DHT22;8350;52.316;10.530;2023-10-09T02:24:01;12.60;99.90
16479;DHT22;8350;52.316;10.530;2023-10-09T02:26:33;12.60;99.90
16479;DHT22;8350;52.316;10.530;2023-10-09T02:29:27;12.50;99.90
16479;DHT22;8350;52.316;10.530;2023-10-09T02:31:54;12.50;99.90
16479;DHT22;8350;52.316;10.530;2023-10-09T02:34:26;12.50;99.90
16479;DHT22;8350;52.316;10.530;2023-10-09T02:36:54;12.40;99.90
16479;DHT22;8350;52.316;10.530;2023-10-09T02:39:31;12.40;99.90
16479;DHT22;8350;52.316;10.530;2023-10-09T02:42:03;12.30;99.90
16479;DHT22;8350;52.316;10.530;2023-10-09T02:44:44;12.30;99.90
16479;DHT22;8350;52.316;10.530;2023-10-09T02:47:15;12.30;99.90
16479;DHT22;8350;52.316;10.530;2023-10-09T02:49:47;12.30;99.90
16479;DHT22;8350;52.316;10.530;2023-10-09T02:52:17;12.30;99.90
16479;DHT22;8350;52.316;10.530;2023-10-09T02:54:51;12.30;99.90
16479;DHT22;8350;52.316;10.530;2023-10-09T02:57:26;12.40;99.90
16479;DHT22;8350;52.316;10.530;2023-10-09T03:00:02;12.30;99.90
16479;DHT22;8350;52.316;10.530;2023-10-09T03:02:34;12.30;99.90
16479;DHT22;8350;52.316;10.530;2023-10-09T03:05:08;12.20;99.90
16479;DHT22;8350;52.316;10.530;2023-10-09T03:07:39;12.20;99.90
16479;DHT22;8350;52.316;10.530;2023-10-09T03:10:08;12.20;99.90
16479;DHT22;8350;52.316;10.530;2023-10-09T03:12:36;12.30;99.90
16479;DHT22;8350;52.316;10.530;2023-10-09T03:15:06;12.20;99.90
16479;DHT22;8350;52.316;10.530;2023-10-09T03:17:34;12.30;99.90
16479;DHT22;8350;52.316;10.530;2023-10-09T03:20:03;12.30;99.90
16479;DHT22;8350;52.316;10.530;2023-10-09T03:22:37;12.30;99.90
16479;DHT22;8350;52.316;10.530;2023-10-09T03:25:07;12.30;99.90
16479;DHT22;8350;52.316;10.530;2023-10-09T03:27:38;12.20;99.90
16479;DHT22;8350;52.316;10.530;2023-10-09T03:30:08;12.20;99.90
16479;DHT22;8350;52.316;10.530;2023-10-09T03:32:43;12.10;99.90
16479;DHT22;8350;52.316;10.530;2023-10-09T03:35:10;12.10;99.90
16479;DHT22;8350;52.316;10.530;2023-10-09T03:37:42;12.10;99.90
16479;DHT22;8350;52.316;10.530;2023-10-09T03:40:11;12.10;99.90
16479;DHT22;8350;52.316;10.530;2023-10-09T03:42:45;12.10;99.90
16479;DHT22;8350;52.316;10.530;2023-10-09T03:48:16;11.90;99.90
16479;DHT22;8350;52.316;10.530;2023-10-09T03:50:48;11.90;99.90
16479;DHT22;8350;52.316;10.530;2023-10-09T03:53:21;12.00;99.90
16479;DHT22;8350;52.316;10.530;2023-10-09T03:55:49;12.00;99.90
16479;DHT22;8350;52.316;10.530;2023-10-09T03:58:16;12.00;99.90
16479;DHT22;8350;52.316;10.530;2023-10-09T04:00:44;12.00;99.90
16479;DHT22;8350;52.316;10.530;2023-10-09T04:03:15;12.00;99.90
16479;DHT22;8350;52.316;10.530;2023-10-09T04:05:42;12.00;99.90
16479;DHT22;8350;52.316;10.530;2023-10-09T04:08:10;12.00;99.90
16479;DHT22;8350;52.316;10.530;2023-10-09T04:10:45;12.00;99.90
16479;DHT22;8350;52.316;10.530;2023-10-09T04:13:19;12.00;99.90
16479;DHT22;8350;52.316;10.530;2023-10-09T04:15:58;12.00;99.90
16479;DHT22;8350;52.316;10.530;2023-10-09T04:18:29;12.10;99.90
16479;DHT22;8350;52.316;10.530;2023-10-09T04:20:58;11.90;99.90
16479;DHT22;8350;52.316;10.530;2023-10-09T04:23:45;11.70;99.90
16479;DHT22;8350;52.316;10.530;2023-10-09T04:26:50;11.60;99.90
16479;DHT22;8350;52.316;10.530;2023-10-09T04:29:24;11.70;99.90
16479;DHT22;8350;52.316;10.530;2023-10-09T04:31:54;11.80;99.90
16479;DHT22;8350;52.316;10.530;2023-10-09T04:34:21;11.80;99.90
16479;DHT22;8350;52.316;10.530;2023-10-09T04:37:00;11.80;99.90
16479;DHT22;8350;52.316;10.530;2023-10-09T04:39:45;11.80;99.90
16479;DHT22;8350;52.316;10.530;2023-10-09T04:42:14;11.80;99.90
16479;DHT22;8350;52.316;10.530;2023-10-09T04:45:05;11.90;99.90
16479;DHT22;8350;52.316;10.530;2023-10-09T04:47:50;12.00;99.90
16479;DHT22;8350;52.316;10.530;2023-10-09T04:50:26;12.00;99.90
16479;DHT22;8350;52.316;10.530;2023-10-09T04:53:07;12.00;99.90
16479;DHT22;8350;52.316;10.530;2023-10-09T04:55:48;12.00;99.90
16479;DHT22;8350;52.316;10.530;2023-10-09T04:58:21;12.10;99.90
16479;DHT22;8350;52.316;10.530;2023-10-09T05:00:53;12.10;99.90
16479;DHT22;8350;52.316;10.530;2023-10-09T05:03:39;12.10;99.90
16479;DHT22;8350;52.316;10.530;2023-10-09T05:06:18;12.10;99.90
16479;DHT22;8350;52.316;10.530;2023-10-09T05:08:58;12.10;99.90
16479;DHT22;8350;52.316;10.530;2023-10-09T05:11:34;12.10;99.90
16479;DHT22;8350;52.316;10.530;2023-10-09T05:14:19;12.10;99.90
16479;DHT22;8350;52.316;10.530;2023-10-09T05:16:54;12.10;99.90
16479;DHT22;8350;52.316;10.530;2023-10-09T05:19:21;12.10;99.90
16479;DHT22;8350;52.316;10.530;2023-10-09T05:22:20;12.10;99.90
16479;DHT22;8350;52.316;10.530;2023-10-09T05:24:56;12.10;99.90
16479;DHT22;8350;52.316;10.530;2023-10-09T05:27:24;12.10;99.90
16479;DHT22;8350;52.316;10.530;2023-10-09T05:30:10;12.10;99.90
16479;DHT22;8350;52.316;10.530;2023-10-09T05:32:54;12.20;99.90
16479;DHT22;8350;52.316;10.530;2023-10-09T05:35:54;12.20;99.90
16479;DHT22;8350;52.316;10.530;2023-10-09T05:38:47;12.20;99.90
16479;DHT22;8350;52.316;10.530;2023-10-09T05:41:24;12.30;99.90
16479;DHT22;8350;52.316;10.530;2023-10-09T05:44:09;12.30;99.90
16479;DHT22;8350;52.316;10.530;2023-10-09T05:47:02;12.30;99.90
16479;DHT22;8350;52.316;10.530;2023-10-09T05:49:48;12.30;99.90
16479;DHT22;8350;52.316;10.530;2023-10-09T05:52:27;12.30;99.90
16479;DHT22;8350;52.316;10.530;2023-10-09T05:55:13;12.40;99.90
16479;DHT22;8350;52.316;10.530;2023-10-09T05:57:57;12.40;99.90
16479;DHT22;8350;52.316;10.530;2023-10-09T06:00:41;12.50;99.90
16479;DHT22;8350;52.316;10.530;2023-10-09T06:03:25;12.50;99.90
16479;DHT22;8350;52.316;10.530;2023-10-09T06:06:12;12.50;99.90
16479;DHT22;8350;52.316;10.530;2023-10-09T06:09:04;12.50;99.90
16479;DHT22;8350;52.316;10.530;2023-10-09T06:12:00;12.60;99.90
16479;DHT22;8350;52.316;10.530;2023-10-09T06:14:45;12.60;99.90
16479;DHT22;8350;52.316;10.530;2023-10-09T06:17:44;12.70;99.90
16479;DHT22;8350;52.316;10.530;2023-10-09T06:20:16;12.70;99.90
16479;DHT22;8350;52.316;10.530;2023-10-09T06:23:02;12.70;99.90
16479;DHT22;8350;52.316;10.530;2023-10-09T06:25:42;12.80;99.90
16479;DHT22;8350;52.316;10.530;2023-10-09T06:28:17;12.80;99.90
16479;DHT22;8350;52.316;10.530;2023-10-09T06:30:58;12.90;99.90
16479;DHT22;8350;52.316;10.530;2023-10-09T06:33:46;12.90;99.90
16479;DHT22;8350;52.316;10.530;2023-10-09T06:36:33;13.00;99.90
16479;DHT22;8350;52.316;10.530;2023-10-09T06:39:01;13.10;99.90
16479;DHT22;8350;52.316;10.530;2023-10-09T06:41:42;13.20;99.90
16479;DHT22;8350;52.316;10.530;2023-10-09T06:44:10;13.30;99.90
16479;DHT22;8350;52.316;10.530;2023-10-09T06:46:58;13.30;99.90
16479;DHT22;8350;52.316;10.530;2023-10-09T06:49:33;13.40;99.90
16479;DHT22;8350;52.316;10.530;2023-10-09T06:52:03;13.50;99.90
16479;DHT22;8350;52.316;10.530;2023-10-09T06:54:42;13.50;99.90
16479;DHT22;8350;52.316;10.530;2023-10-09T06:57:17;13.60;99.90
16479;DHT22;8350;52.316;10.530;2023-10-09T07:00:06;13.60;99.90
16479;DHT22;8350;52.316;10.530;2023-10-09T07:02:52;13.60;99.90
16479;DHT22;8350;52.316;10.530;2023-10-09T07:05:19;13.70;99.90
16479;DHT22;8350;52.316;10.530;2023-10-09T07:07:46;13.80;99.90
16479;DHT22;8350;52.316;10.530;2023-10-09T07:10:22;13.70;99.90
16479;DHT22;8350;52.316;10.530;2023-10-09T07:12:55;13.80;99.90
16479;DHT22;8350;52.316;10.530;2023-10-09T07:15:23;13.80;99.90
16479;DHT22;8350;52.316;10.530;2023-10-09T07:18:07;13.80;99.90
16479;DHT22;8350;52.316;10.530;2023-10-09T07:20:49;13.80;99.90
16479;DHT22;8350;52.316;10.530;2023-10-09T07:23:27;13.80;99.90
16479;DHT22;8350;52.316;10.530;2023-10-09T07:26:06;13.80;99.90
16479;DHT22;8350;52.316;10.530;2023-10-09T07:28:49;13.80;99.90
16479;DHT22;8350;52.316;10.530;2023-10-09T07:31:20;13.80;99.90
16479;DHT22;8350;52.316;10.530;2023-10-09T07:34:05;13.80;99.90
16479;DHT22;8350;52.316;10.530;2023-10-09T07:36:54;13.80;99.90
16479;DHT22;8350;52.316;10.530;2023-10-09T07:39:22;13.80;99.90
16479;DHT22;8350;52.316;10.530;2023-10-09T07:42:02;13.80;99.90
16479;DHT22;8350;52.316;10.530;2023-10-09T07:44:41;13.90;99.90
16479;DHT22;8350;52.316;10.530;2023-10-09T07:47:18;13.90;99.90
16479;DHT22;8350;52.316;10.530;2023-10-09T07:50:11;13.90;99.90
16479;DHT22;8350;52.316;10.530;2023-10-09T07:52:42;13.90;99.90
16479;DHT22;8350;52.316;10.530;2023-10-09T07:55:10;14.00;99.90
16479;DHT22;8350;52.316;10.530;2023-10-09T07:57:53;14.00;99.90
16479;DHT22;8350;52.316;10.530;2023-10-09T08:00:20;14.00;99.90
16479;DHT22;8350;52.316;10.530;2023-10-09T08:03:05;14.00;99.90
16479;DHT22;8350;52.316;10.530;2023-10-09T08:05:49;14.00;99.90
16479;DHT22;8350;52.316;10.530;2023-10-09T08:08:18;14.00;99.90
16479;DHT22;8350;52.316;10.530;2023-10-09T08:11:07;14.10;99.90
16479;DHT22;8350;52.316;10.530;2023-10-09T08:14:02;14.10;99.90
16479;DHT22;8350;52.316;10.530;2023-10-09T08:16:29;14.10;99.90
16479;DHT22;8350;52.316;10.530;2023-10-09T08:19:04;14.10;99.90
16479;DHT22;8350;52.316;10.530;2023-10-09T08:21:56;14.10;99.90
16479;DHT22;8350;52.316;10.530;2023-10-09T08:25:03;14.10;99.90
16479;DHT22;8350;52.316;10.530;2023-10-09T08:27:30;14.10;99.90
16479;DHT22;8350;52.316;10.530;2023-10-09T08:30:25;14.10;99.90
16479;DHT22;8350;52.316;10.530;2023-10-09T08:32:54;14.20;99.90
16479;DHT22;8350;52.316;10.530;2023-10-09T08:35:55;14.20;99.90
16479;DHT22;8350;52.316;10.530;2023-10-09T08:38:28;14.30;99.90
16479;DHT22;8350;52.316;10.530;2023-10-09T08:41:07;14.30;99.90
16479;DHT22;8350;52.316;10.530;2023-10-09T08:43:47;14.30;99.90
16479;DHT22;8350;52.316;10.530;2023-10-09T08:46:19;14.30;99.90
16479;DHT22;8350;52.316;10.530;2023-10-09T08:48:48;14.30;99.90
16479;DHT22;8350;52.316;10.530;2023-10-09T08:51:17;14.30;99.90
16479;DHT22;8350;52.316;10.530;2023-10-09T08:53:44;14.40;99.90
16479;DHT22;8350;52.316;10.530;2023-10-09T08:56:12;14.30;99.90
16479;DHT22;8350;52.316;10.530;2023-10-09T08:58:45;14.30;99.90
16479;DHT22;8350;52.316;10.530;2023-10-09T09:01:17;14.30;99.90
16479;DHT22;8350;52.316;10.530;2023-10-09T09:03:48;14.40;99.90
16479;DHT22;8350;52.316;10.530;2023-10-09T09:06:16;14.40;99.90
16479;DHT22;8350;52.316;10.530;2023-10-09T09:08:45;14.40;99.90
16479;DHT22;8350;52.316;10.530;2023-10-09T09:11:16;14.50;99.90
16479;DHT22;8350;52.316;10.530;2023-10-09T09:14:00;14.40;99.90
16479;DHT22;8350;52.316;10.530;2023-10-09T09:16:32;14.40;99.90
16479;DHT22;8350;52.316;10.530;2023-10-09T09:19:02;14.50;99.90
16479;DHT22;8350;52.316;10.530;2023-10-09T09:21:31;14.50;99.90
16479;DHT22;8350;52.316;10.530;2023-10-09T09:24:04;14.60;99.90
16479;DHT22;8350;52.316;10.530;2023-10-09T09:26:43;14.60;99.90
16479;DHT22;8350;52.316;10.530;2023-10-09T09:29:24;14.60;99.90
16479;DHT22;8350;52.316;10.530;2023-10-09T09:32:07;14.60;99.90
16479;DHT22;8350;52.316;10.530;2023-10-09T09:34:46;14.60;99.90
16479;DHT22;8350;52.316;10.530;2023-10-09T09:37:19;14.70;99.90
16479;DHT22;8350;52.316;10.530;2023-10-09T09:39:47;14.70;99.90
16479;DHT22;8350;52.316;10.530;2023-10-09T09:42:18;14.70;99.90
16479;DHT22;8350;52.316;10.530;2023-10-09T09:44:51;14.70;99.90
16479;DHT22;8350;52.316;10.530;2023-10-09T09:47:20;14.80;99.90
16479;DHT22;8350;52.316;10.530;2023-10-09T09:49:53;14.70;99.90
16479;DHT22;8350;52.316;10.530;2023-10-09T09:52:29;14.70;99.90
16479;DHT22;8350;52.316;10.530;2023-10-09T09:55:05;14.80;99.90
16479;DHT22;8350;52.316;10.530;2023-10-09T09:57:33;14.80;99.90
16479;DHT22;8350;52.316;10.530;2023-10-09T10:00:08;14.80;99.90
16479;DHT22;8350;52.316;10.530;2023-10-09T10:02:54;14.80;99.90
16479;DHT22;8350;52.316;10.530;2023-10-09T10:05:26;14.80;99.90
16479;DHT22;8350;52.316;10.530;2023-10-09T10:07:57;14.90;99.90
16479;DHT22;8350;52.316;10.530;2023-10-09T10:10:35;14.90;99.90
16479;DHT22;8350;52.316;10.530;2023-10-09T10:13:04;14.90;99.90
16479;DHT22;8350;52.316;10.530;2023-10-09T10:18:56;15.00;99.90
16479;DHT22;8350;52.316;10.530;2023-10-09T10:21:33;15.00;99.90
16479;DHT22;8350;52.316;10.530;2023-10-09T10:24:05;15.00;99.90
16479;DHT22;8350;52.316;10.530;2023-10-09T10:27:14;15.00;99.90
16479;DHT22;8350;52.316;10.530;2023-10-09T10:29:45;15.00;99.90
16479;DHT22;8350;52.316;10.530;2023-10-09T10:32:15;15.00;99.90
16479;DHT22;8350;52.316;10.530;2023-10-09T10:34:55;15.00;99.90
16479;DHT22;8350;52.316;10.530;2023-10-09T10:37:34;15.00;99.90
16479;DHT22;8350;52.316;10.530;2023-10-09T10:40:04;15.00;99.90
16479;DHT22;8350;52.316;10.530;2023-10-09T10:42:47;15.00;99.90
16479;DHT22;8350;52.316;10.530;2023-10-09T10:45:31;15.00;99.90
16479;DHT22;8350;52.316;10.530;2023-10-09T10:48:01;15.00;99.90
16479;DHT22;8350;52.316;10.530;2023-10-09T10:50:35;15.10;99.90
16479;DHT22;8350;52.316;10.530;2023-10-09T10:53:11;15.10;99.90
16479;DHT22;8350;52.316;10.530;2023-10-09T10:55:54;15.10;99.90
16479;DHT22;8350;52.316;10.530;2023-10-09T10:58:22;15.20;99.90
16479;DHT22;8350;52.316;10.530;2023-10-09T11:01:02;15.20;99.90
16479;DHT22;8350;52.316;10.530;2023-10-09T11:03:40;15.20;99.90
16479;DHT22;8350;52.316;10.530;2023-10-09T11:06:37;15.20;99.90
16479;DHT22;8350;52.316;10.530;2023-10-09T11:09:09;15.20;99.90
16479;DHT22;8350;52.316;10.530;2023-10-09T11:11:47;15.20;99.90
16479;DHT22;8350;52.316;10.530;2023-10-09T11:14:15;15.20;99.90
16479;DHT22;8350;52.316;10.530;2023-10-09T11:16:43;15.20;99.90
16479;DHT22;8350;52.316;10.530;2023-10-09T11:19:14;15.20;99.90
16479;DHT22;8350;52.316;10.530;2023-10-09T11:22:00;15.20;99.90
16479;DHT22;8350;52.316;10.530;2023-10-09T11:24:48;15.30;99.90
16479;DHT22;8350;52.316;10.530;2023-10-09T11:27:27;15.20;99.90
16479;DHT22;8350;52.316;10.530;2023-10-09T11:29:58;15.30;99.90
16479;DHT22;8350;52.316;10.530;2023-10-09T11:32:37;15.20;99.90
16479;DHT22;8350;52.316;10.530;2023-10-09T11:35:12;15.30;99.90
16479;DHT22;8350;52.316;10.530;2023-10-09T11:37:55;15.30;99.90
16479;DHT22;8350;52.316;10.530;2023-10-09T11:40:31;15.30;99.90
16479;DHT22;8350;52.316;10.530;2023-10-09T11:43:22;15.30;99.90
16479;DHT22;8350;52.316;10.530;2023-10-09T11:46:12;15.30;99.90
16479;DHT22;8350;52.316;10.530;2023-10-09T11:49:05;15.40;99.90
16479;DHT22;8350;52.316;10.530;2023-10-09T11:51:50;15.40;99.90
16479;DHT22;8350;52.316;10.530;2023-10-09T11:54:52;15.30;99.90
16479;DHT22;8350;52.316;10.530;2023-10-09T11:57:23;15.40;99.90
16479;DHT22;8350;52.316;10.530;2023-10-09T11:59:56;15.40;99.90
16479;DHT22;8350;52.316;10.530;2023-10-09T12:02:24;15.30;99.90
16479;DHT22;8350;52.316;10.530;2023-10-09T12:04:51;15.40;99.90
16479;DHT22;8350;52.316;10.530;2023-10-09T12:07:22;15.40;99.90
16479;DHT22;8350;52.316;10.530;2023-10-09T12:09:50;15.40;99.90
16479;DHT22;8350;52.316;10.530;2023-10-09T12:12:22;15.40;99.90
16479;DHT22;8350;52.316;10.530;2023-10-09T12:14:52;15.40;99.90
16479;DHT22;8350;52.316;10.530;2023-10-09T12:17:22;15.40;99.90
16479;DHT22;8350;52.316;10.530;2023-10-09T12:19:53;15.40;99.90
16479;DHT22;8350;52.316;10.530;2023-10-09T12:22:21;15.40;99.90
16479;DHT22;8350;52.316;10.530;2023-10-09T12:24:54;15.30;99.90
16479;DHT22;8350;52.316;10.530;2023-10-09T12:27:22;15.40;99.90
16479;DHT22;8350;52.316;10.530;2023-10-09T12:29:49;15.30;99.90
16479;DHT22;8350;52.316;10.530;2023-10-09T12:32:15;15.30;99.90
16479;DHT22;8350;52.316;10.530;2023-10-09T12:34:45;15.30;99.90
16479;DHT22;8350;52.316;10.530;2023-10-09T12:37:15;15.30;99.90
16479;DHT22;8350;52.316;10.530;2023-10-09T12:39:46;15.30;99.90
16479;DHT22;8350;52.316;10.530;2023-10-09T12:42:15;15.30;99.90
16479;DHT22;8350;52.316;10.530;2023-10-09T12:44:42;15.40;99.90
16479;DHT22;8350;52.316;10.530;2023-10-09T12:47:10;15.40;99.90
16479;DHT22;8350;52.316;10.530;2023-10-09T12:49:38;15.40;99.90
16479;DHT22;8350;52.316;10.530;2023-10-09T12:52:07;15.40;99.90
16479;DHT22;8350;52.316;10.530;2023-10-09T12:54:41;15.50;99.90
16479;DHT22;8350;52.316;10.530;2023-10-09T12:57:09;15.50;99.90
16479;DHT22;8350;52.316;10.530;2023-10-09T12:59:40;15.50;99.90
16479;DHT22;8350;52.316;10.530;2023-10-09T13:02:12;15.50;99.90
16479;DHT22;8350;52.316;10.530;2023-10-09T13:04:39;15.50;99.90
16479;DHT22;8350;52.316;10.530;2023-10-09T13:07:08;15.50;99.90
16479;DHT22;8350;52.316;10.530;2023-10-09T13:09:35;15.50;99.90
16479;DHT22;8350;52.316;10.530;2023-10-09T13:12:08;15.50;99.90
16479;DHT22;8350;52.316;10.530;2023-10-09T13:14:37;15.50;99.90
16479;DHT22;8350;52.316;10.530;2023-10-09T13:17:08;15.50;99.90
16479;DHT22;8350;52.316;10.530;2023-10-09T13:19:35;15.60;99.90
16479;DHT22;8350;52.316;10.530;2023-10-09T13:22:02;15.60;99.90
16479;DHT22;8350;52.316;10.530;2023-10-09T13:24:38;15.60;99.90
16479;DHT22;8350;52.316;10.530;2023-10-09T13:27:05;15.60;99.90
16479;DHT22;8350;52.316;10.530;2023-10-09T13:29:36;15.60;99.90
16479;DHT22;8350;52.316;10.530;2023-10-09T13:32:05;15.60;99.90
16479;DHT22;8350;52.316;10.530;2023-10-09T13:34:40;15.60;99.90
16479;DHT22;8350;52.316;10.530;2023-10-09T13:37:10;15.60;99.90
16479;DHT22;8350;52.316;10.530;2023-10-09T13:39:39;15.60;99.90
16479;DHT22;8350;52.316;10.530;2023-10-09T13:42:17;15.70;99.90
16479;DHT22;8350;52.316;10.530;2023-10-09T13:44:44;15.60;99.90
16479;DHT22;8350;52.316;10.530;2023-10-09T13:47:14;15.60;99.90
16479;DHT22;8350;52.316;10.530;2023-10-09T13:49:48;15.70;99.90
16479;DHT22;8350;52.316;10.530;2023-10-09T13:52:19;15.70;99.90
16479;DHT22;8350;52.316;10.530;2023-10-09T13:54:47;15.80;99.90
16479;DHT22;8350;52.316;10.530;2023-10-09T13:57:15;15.80;99.90
16479;DHT22;8350;52.316;10.530;2023-10-09T13:59:42;15.80;99.90
16479;DHT22;8350;52.316;10.530;2023-10-09T14:02:18;15.80;99.90
16479;DHT22;8350;52.316;10.530;2023-10-09T14:04:48;15.90;99.90
16479;DHT22;8350;52.316;10.530;2023-10-09T14:07:15;15.90;99.90
16479;DHT22;8350;52.316;10.530;2023-10-09T14:09:46;15.90;99.90
16479;DHT22;8350;52.316;10.530;2023-10-09T14:12:24;15.90;99.90
16479;DHT22;8350;52.316;10.530;2023-10-09T14:14:55;15.90;99.90
16479;DHT22;8350;52.316;10.530;2023-10-09T14:17:26;16.00;99.90
16479;DHT22;8350;52.316;10.530;2023-10-09T14:19:58;15.90;99.90
16479;DHT22;8350;52.316;10.530;2023-10-09T14:22:45;16.00;99.90
16479;DHT22;8350;52.316;10.530;2023-10-09T14:25:18;16.00;99.90
16479;DHT22;8350;52.316;10.530;2023-10-09T14:27:46;16.10;99.90
16479;DHT22;8350;52.316;10.530;2023-10-09T14:30:20;16.10;99.90
16479;DHT22;8350;52.316;10.530;2023-10-09T14:32:56;16.10;99.90
16479;DHT22;8350;52.316;10.530;2023-10-09T14:35:24;16.10;99.90
16479;DHT22;8350;52.316;10.530;2023-10-09T14:37:56;16.10;99.90
16479;DHT22;8350;52.316;10.530;2023-10-09T14:40:23;16.10;99.90
16479;DHT22;8350;52.316;10.530;2023-10-09T14:42:57;16.10;99.90
16479;DHT22;8350;52.316;10.530;2023-10-09T14:45:24;16.10;99.90
16479;DHT22;8350;52.316;10.530;2023-10-09T14:47:52;16.20;99.90
16479;DHT22;8350;52.316;10.530;2023-10-09T14:50:20;16.20;99.90
16479;DHT22;8350;52.316;10.530;2023-10-09T14:52:50;16.20;99.90
16479;DHT22;8350;52.316;10.530;2023-10-09T14:55:17;16.20;99.90
16479;DHT22;8350;52.316;10.530;2023-10-09T14:57:47;16.20;99.90
16479;DHT22;8350;52.316;10.530;2023-10-09T15:00:16;16.20;99.90
16479;DHT22;8350;52.316;10.530;2023-10-09T15:02:51;16.20;99.90
16479;DHT22;8350;52.316;10.530;2023-10-09T15:05:19;16.20;99.90
16479;DHT22;8350;52.316;10.530;2023-10-09T15:07:49;16.20;99.90
16479;DHT22;8350;52.316;10.530;2023-10-09T15:10:16;16.20;99.90
16479;DHT22;8350;52.316;10.530;2023-10-09T15:12:43;16.20;99.90
16479;DHT22;8350;52.316;10.530;2023-10-09T15:15:12;16.20;99.90
16479;DHT22;8350;52.316;10.530;2023-10-09T15:17:40;16.20;99.90
16479;DHT22;8350;52.316;10.530;2023-10-09T15:20:12;16.10;99.90
16479;DHT22;8350;52.316;10.530;2023-10-09T15:22:40;16.10;99.90
16479;DHT22;8350;52.316;10.530;2023-10-09T15:25:13;16.10;99.90
16479;DHT22;8350;52.316;10.530;2023-10-09T15:27:41;16.10;99.90
16479;DHT22;8350;52.316;10.530;2023-10-09T15:30:09;16.10;99.90
16479;DHT22;8350;52.316;10.530;2023-10-09T15:32:39;16.10;99.90
16479;DHT22;8350;52.316;10.530;2023-10-09T15:35:07;16.00;99.90
16479;DHT22;8350;52.316;10.530;2023-10-09T15:37:35;16.00;99.90
16479;DHT22;8350;52.316;10.530;2023-10-09T15:40:04;16.00;99.90
16479;DHT22;8350;52.316;10.530;2023-10-09T15:42:41;16.10;99.90
16479;DHT22;8350;52.316;10.530;2023-10-09T15:45:09;16.00;99.90
16479;DHT22;8350;52.316;10.530;2023-10-09T15:47:37;16.00;99.90
16479;DHT22;8350;52.316;10.530;2023-10-09T15:50:07;16.00;99.90
16479;DHT22;8350;52.316;10.530;2023-10-09T15:52:37;16.10;99.90
16479;DHT22;8350;52.316;10.530;2023-10-09T15:55:06;16.10;99.90
16479;DHT22;8350;52.316;10.530;2023-10-09T15:57:42;16.10;99.90
16479;DHT22;8350;52.316;10.530;2023-10-09T16:00:10;16.10;99.90
16479;DHT22;8350;52.316;10.530;2023-10-09T16:02:46;16.10;99.90
16479;DHT22;8350;52.316;10.530;2023-10-09T16:05:14;16.10;99.90
16479;DHT22;8350;52.316;10.530;2023-10-09T16:07:45;16.10;99.90
16479;DHT22;8350;52.316;10.530;2023-10-09T16:10:12;16.10;99.90
16479;DHT22;8350;52.316;10.530;2023-10-09T16:12:40;16.10;99.90
16479;DHT22;8350;52.316;10.530;2023-10-09T16:15:10;16.10;99.90
16479;DHT22;8350;52.316;10.530;2023-10-09T16:17:40;16.10;99.90
16479;DHT22;8350;52.316;10.530;2023-10-09T16:20:09;16.10;99.90
16479;DHT22;8350;52.316;10.530;2023-10-09T16:22:40;16.10;99.90